Time;durP1;ratioP1;P1;durP2;ratioP2;P2;SDS_P1;SDS_P2;PMS_P1;PMS_P2;Temp;Humidity;BMP_temperature;BMP_pressure;BME280_temperature;BME280_humidity;BME280_pressure;Samples;Min_cycle;Max_cycle;Signal;HPM_P1;HPM_P2
2023/07/26 00:00:34;;;;;;;0.35;0.32;;;16.90;99.90;;;;;;4412619;32;20074;-77
2023/07/26 00:02:59;;;;;;;0.32;0.32;;;17.00;99.90;;;;;;4412925;32;20078;-77
2023/07/26 00:05:25;;;;;;;0.30;0.30;;;17.00;99.90;;;;;;4410170;32;20514;-76
2023/07/26 00:07:50;;;;;;;0.30;0.30;;;16.90;99.90;;;;;;4397991;32;20576;-76
2023/07/26 00:10:16;;;;;;;1.27;0.60;;;16.90;99.90;;;;;;4401595;32;20061;-76
2023/07/26 00:12:42;;;;;;;0.77;0.77;;;16.90;99.90;;;;;;4398613;32;20149;-76
2023/07/26 00:15:08;;;;;;;0.20;0.20;;;16.70;99.90;;;;;;4397859;32;20121;-77
2023/07/26 00:17:33;;;;;;;0.20;0.20;;;16.70;99.90;;;;;;4400401;32;20069;-77
2023/07/26 00:19:59;;;;;;;0.20;0.20;;;16.70;99.90;;;;;;4412982;32;20073;-77
2023/07/26 00:22:24;;;;;;;0.20;0.20;;;16.60;99.90;;;;;;4412629;32;20125;-77
2023/07/26 00:24:50;;;;;;;0.30;0.30;;;16.60;99.90;;;;;;4412838;32;20470;-77
2023/07/26 00:27:17;;;;;;;0.28;0.28;;;16.60;99.90;;;;;;4412237;32;20081;-76
2023/07/26 00:29:42;;;;;;;0.20;0.20;;;16.50;99.90;;;;;;4411235;32;20144;-76
2023/07/26 00:32:08;;;;;;;2.00;0.85;;;16.40;99.90;;;;;;4412606;32;20499;-75
2023/07/26 00:34:35;;;;;;;0.22;0.22;;;16.30;99.90;;;;;;4412845;32;20074;-77
2023/07/26 00:37:03;;;;;;;3.12;0.25;;;16.30;99.90;;;;;;4412874;32;20065;-75
2023/07/26 00:39:30;;;;;;;0.95;0.93;;;16.20;99.90;;;;;;4412066;32;20065;-75
2023/07/26 00:41:56;;;;;;;0.47;0.47;;;16.20;99.90;;;;;;4411407;32;20066;-75
2023/07/26 00:44:21;;;;;;;1.30;0.35;;;16.20;99.90;;;;;;4411520;32;20139;-77
2023/07/26 00:46:47;;;;;;;0.28;0.28;;;16.20;99.90;;;;;;4411995;32;20082;-77
2023/07/26 00:49:13;;;;;;;0.20;0.20;;;16.20;99.90;;;;;;4409792;32;20065;-77
2023/07/26 00:51:40;;;;;;;0.30;0.30;;;16.20;99.90;;;;;;4410627;32;20066;-78
2023/07/26 00:54:07;;;;;;;4.75;0.75;;;16.20;99.90;;;;;;4399797;32;20078;-77
2023/07/26 00:56:34;;;;;;;0.57;0.57;;;16.10;99.90;;;;;;4411898;32;20077;-77
2023/07/26 00:58:59;;;;;;;1.10;0.88;;;16.00;99.90;;;;;;4411917;32;20447;-77
2023/07/26 01:01:26;;;;;;;0.20;0.20;;;16.00;99.90;;;;;;4413207;32;20070;-75
2023/07/26 01:03:51;;;;;;;0.20;0.20;;;15.90;99.90;;;;;;4414730;32;20074;-76
2023/07/26 01:06:36;;;;;;;0.37;0.37;;;15.90;99.90;;;;;;4414151;32;20580;-76
2023/07/26 01:09:10;;;;;;;1.65;0.85;;;15.90;99.90;;;;;;4391432;32;20089;-77
2023/07/26 01:11:48;;;;;;;5.05;1.60;;;15.90;99.90;;;;;;4401563;32;20109;-76
2023/07/26 01:15:53;;;;;;;0.20;0.20;;;15.90;99.90;;;;;;4406699;32;20074;-75
2023/07/26 01:17:39;;;;;;;0.30;0.30;;;15.70;99.90;;;;;;4392712;32;20612;-78
2023/07/26 01:20:05;;;;;;;0.30;0.30;;;15.70;99.90;;;;;;4406794;32;20065;-76
2023/07/26 01:22:30;;;;;;;0.30;0.30;;;15.60;99.90;;;;;;4414947;32;20092;-75
2023/07/26 01:24:56;;;;;;;0.20;0.20;;;15.60;99.90;;;;;;4414337;32;20070;-75
2023/07/26 01:27:22;;;;;;;2.55;1.10;;;15.60;99.90;;;;;;4403987;32;20517;-75
2023/07/26 01:29:51;;;;;;;0.22;0.22;;;15.60;99.90;;;;;;4408570;32;20077;-76
2023/07/26 01:32:18;;;;;;;0.30;0.30;;;15.50;99.90;;;;;;4413764;32;20096;-75
2023/07/26 01:34:44;;;;;;;0.20;0.20;;;15.40;99.90;;;;;;4406736;32;20082;-75
2023/07/26 01:37:10;;;;;;;0.25;0.25;;;15.30;99.90;;;;;;4408387;32;20419;-76
2023/07/26 01:39:36;;;;;;;2.17;0.93;;;15.20;99.90;;;;;;4407115;32;20062;-76
2023/07/26 01:42:01;;;;;;;0.30;0.30;;;15.10;99.90;;;;;;4402330;32;20518;-75
2023/07/26 01:44:35;;;;;;;0.20;0.20;;;15.10;99.90;;;;;;4405033;32;20082;-76
2023/07/26 01:47:00;;;;;;;0.25;0.25;;;15.10;99.90;;;;;;4411850;32;20073;-76
2023/07/26 01:49:26;;;;;;;0.20;0.20;;;15.00;99.90;;;;;;4408102;32;20069;-76
2023/07/26 01:51:51;;;;;;;0.52;0.52;;;15.00;99.90;;;;;;4413520;32;20075;-75
2023/07/26 01:54:17;;;;;;;0.73;0.73;;;15.00;99.90;;;;;;4414184;32;20074;-75
2023/07/26 01:56:42;;;;;;;0.20;0.20;;;14.90;99.90;;;;;;4414315;32;20497;-75
2023/07/26 01:59:08;;;;;;;0.20;0.20;;;14.90;99.90;;;;;;4411119;32;20061;-76
2023/07/26 02:01:33;;;;;;;0.20;0.20;;;15.00;99.90;;;;;;4411949;32;20089;-76
2023/07/26 02:03:59;;;;;;;6.12;1.27;;;14.90;99.90;;;;;;4408851;32;20502;-76
2023/07/26 02:06:24;;;;;;;0.37;0.37;;;14.80;99.90;;;;;;4409937;32;20422;-76
2023/07/26 02:08:50;;;;;;;0.20;0.20;;;14.80;99.90;;;;;;4403546;32;20124;-77
2023/07/26 02:11:15;;;;;;;13.75;0.62;;;14.80;99.90;;;;;;4407932;32;20529;-77
2023/07/26 02:13:41;;;;;;;0.40;0.40;;;14.80;99.90;;;;;;4397668;32;20159;-77
2023/07/26 02:16:06;;;;;;;0.10;0.10;;;14.80;99.90;;;;;;4404860;32;20089;-76
2023/07/26 02:18:32;;;;;;;0.20;0.20;;;14.70;99.90;;;;;;4408398;32;20085;-77
2023/07/26 02:20:57;;;;;;;0.50;0.40;;;14.70;99.90;;;;;;4404324;32;20066;-76
2023/07/26 02:23:23;;;;;;;0.30;0.30;;;14.70;99.90;;;;;;4402622;32;20085;-77
2023/07/26 02:25:49;;;;;;;0.30;0.30;;;14.70;99.90;;;;;;4408439;32;20062;-76
2023/07/26 02:28:14;;;;;;;1.37;0.37;;;14.70;99.90;;;;;;4412742;32;20069;-77
2023/07/26 02:30:39;;;;;;;0.45;0.30;;;14.70;99.90;;;;;;4405718;32;20078;-76
2023/07/26 02:33:05;;;;;;;1.37;0.32;;;14.60;99.90;;;;;;4412161;32;20085;-76
2023/07/26 02:35:30;;;;;;;1.58;0.40;;;14.60;99.90;;;;;;4411666;32;20116;-76
2023/07/26 02:37:56;;;;;;;0.20;0.20;;;14.60;99.90;;;;;;4406927;32;20085;-77
2023/07/26 02:40:21;;;;;;;0.20;0.20;;;14.50;99.90;;;;;;4404074;32;20070;-77
2023/07/26 02:42:47;;;;;;;1.20;0.65;;;14.50;99.90;;;;;;4407905;32;20492;-76
2023/07/26 02:45:12;;;;;;;0.20;0.20;;;14.60;99.90;;;;;;4405496;32;20082;-77
2023/07/26 02:47:38;;;;;;;0.20;0.20;;;14.40;99.90;;;;;;4405601;32;20077;-77
2023/07/26 02:50:04;;;;;;;0.20;0.20;;;14.40;99.90;;;;;;4413271;32;20065;-76
2023/07/26 02:52:31;;;;;;;0.35;0.35;;;14.40;99.90;;;;;;4413121;32;20073;-77
2023/07/26 02:54:57;;;;;;;0.15;0.15;;;14.30;99.90;;;;;;4408026;32;20069;-77
2023/07/26 02:57:22;;;;;;;0.30;0.30;;;14.30;99.90;;;;;;4403551;32;20089;-77
2023/07/26 02:59:48;;;;;;;0.20;0.20;;;14.10;99.90;;;;;;4413301;32;20953;-76
2023/07/26 03:02:13;;;;;;;0.20;0.20;;;14.10;99.90;;;;;;4408261;32;20085;-76
2023/07/26 03:04:39;;;;;;;8.98;1.17;;;14.10;99.90;;;;;;4413967;32;20123;-77
2023/07/26 03:07:04;;;;;;;0.55;0.40;;;14.20;99.90;;;;;;4413188;32;20094;-76
2023/07/26 03:09:30;;;;;;;2.12;0.50;;;14.20;99.90;;;;;;4412434;32;20082;-76
2023/07/26 03:11:55;;;;;;;0.35;0.35;;;14.20;99.90;;;;;;4413481;32;20086;-76
2023/07/26 03:14:21;;;;;;;0.30;0.30;;;14.10;99.90;;;;;;4413687;32;20135;-77
2023/07/26 03:16:46;;;;;;;0.25;0.25;;;14.10;99.90;;;;;;4413024;32;20584;-76
2023/07/26 03:19:12;;;;;;;0.40;0.40;;;14.10;99.90;;;;;;4412932;32;20062;-76
2023/07/26 03:21:37;;;;;;;0.75;0.60;;;14.00;99.90;;;;;;4413051;32;20124;-75
2023/07/26 03:24:03;;;;;;;0.52;0.52;;;14.10;99.90;;;;;;4413111;32;20065;-77
2023/07/26 03:26:29;;;;;;;0.88;0.88;;;14.10;99.90;;;;;;4413390;32;20065;-77
2023/07/26 03:28:54;;;;;;;0.40;0.40;;;14.20;99.90;;;;;;4413086;32;20073;-78
2023/07/26 03:31:20;;;;;;;0.20;0.20;;;14.10;99.90;;;;;;4408946;32;20069;-75
2023/07/26 03:33:45;;;;;;;0.30;0.30;;;14.00;99.90;;;;;;4398418;32;20069;-77
2023/07/26 03:36:11;;;;;;;0.30;0.30;;;13.90;99.90;;;;;;4408641;32;20085;-75
2023/07/26 03:38:36;;;;;;;0.30;0.30;;;13.90;99.90;;;;;;4413082;32;20058;-75
2023/07/26 03:41:02;;;;;;;0.10;0.10;;;13.90;99.90;;;;;;4413286;32;20078;-75
2023/07/26 03:43:27;;;;;;;0.73;0.73;;;13.90;99.90;;;;;;4412842;32;20075;-76
2023/07/26 03:45:53;;;;;;;0.30;0.30;;;14.00;99.90;;;;;;4412262;32;20166;-78
2023/07/26 03:48:18;;;;;;;0.20;0.20;;;14.00;99.90;;;;;;4412096;32;20061;-77
2023/07/26 03:50:43;;;;;;;0.30;0.30;;;14.10;99.90;;;;;;4412368;32;20510;-76
2023/07/26 03:53:09;;;;;;;0.22;0.22;;;14.00;99.90;;;;;;4413177;32;20061;-76
2023/07/26 03:55:34;;;;;;;0.60;0.30;;;14.10;99.90;;;;;;4412672;32;20166;-76
2023/07/26 03:58:00;;;;;;;0.32;0.32;;;14.00;99.90;;;;;;4412823;32;20069;-77
2023/07/26 04:00:25;;;;;;;0.28;0.28;;;14.00;99.90;;;;;;4413194;32;20505;-75
2023/07/26 04:02:51;;;;;;;0.37;0.37;;;14.00;99.90;;;;;;4413185;32;20065;-76
2023/07/26 04:05:18;;;;;;;0.20;0.20;;;14.10;99.90;;;;;;4405225;32;20073;-75
2023/07/26 04:07:43;;;;;;;1.27;0.90;;;14.00;99.90;;;;;;4406139;32;20066;-75
2023/07/26 04:10:09;;;;;;;4.30;0.50;;;14.00;99.90;;;;;;4398325;32;20128;-76
2023/07/26 04:12:35;;;;;;;0.30;0.30;;;14.00;99.90;;;;;;4400141;32;20439;-76
2023/07/26 04:15:00;;;;;;;0.40;0.40;;;14.00;99.90;;;;;;4412119;32;20070;-76
2023/07/26 04:17:26;;;;;;;1.15;0.82;;;14.10;99.90;;;;;;4405613;32;20058;-75
2023/07/26 04:19:51;;;;;;;0.30;0.30;;;14.10;99.90;;;;;;4397965;32;20082;-76
2023/07/26 04:22:17;;;;;;;0.50;0.50;;;14.10;99.90;;;;;;4398180;32;20058;-76
2023/07/26 04:24:44;;;;;;;0.50;0.50;;;14.10;99.90;;;;;;4411696;32;20065;-76
2023/07/26 04:27:09;;;;;;;0.30;0.30;;;14.30;99.90;;;;;;4407789;32;20070;-76
2023/07/26 04:29:35;;;;;;;0.30;0.30;;;14.40;99.90;;;;;;4396978;32;20580;-76
2023/07/26 04:32:00;;;;;;;0.20;0.20;;;14.30;99.90;;;;;;4410684;32;20120;-76
2023/07/26 04:34:26;;;;;;;0.52;0.40;;;14.40;99.90;;;;;;4412236;32;20097;-75
2023/07/26 04:36:51;;;;;;;0.52;0.52;;;14.40;99.90;;;;;;4412604;32;20433;-75
2023/07/26 04:39:17;;;;;;;0.30;0.30;;;14.50;99.90;;;;;;4400003;32;20066;-75
2023/07/26 04:41:42;;;;;;;0.30;0.30;;;14.50;99.90;;;;;;4399521;32;20133;-76
2023/07/26 04:44:08;;;;;;;1.08;0.88;;;14.60;99.90;;;;;;4412896;32;20073;-76
2023/07/26 04:46:34;;;;;;;0.20;0.20;;;14.50;99.90;;;;;;4414577;32;20395;-75
2023/07/26 04:48:59;;;;;;;0.15;0.15;;;14.50;99.90;;;;;;4414991;32;20475;-76
2023/07/26 04:51:25;;;;;;;0.30;0.30;;;14.50;99.90;;;;;;4415923;32;20078;-76
2023/07/26 04:53:50;;;;;;;0.35;0.35;;;14.50;99.90;;;;;;4414786;32;20187;-76
2023/07/26 04:56:16;;;;;;;0.20;0.20;;;14.50;99.90;;;;;;4414773;32;20074;-77
2023/07/26 04:58:42;;;;;;;2.47;1.15;;;14.50;99.90;;;;;;4415042;32;20069;-76
2023/07/26 05:01:07;;;;;;;0.25;0.25;;;14.50;99.90;;;;;;4414827;32;20509;-75
2023/07/26 05:03:34;;;;;;;0.30;0.30;;;14.40;99.90;;;;;;4399980;32;20073;-77
2023/07/26 05:06:00;;;;;;;1.70;0.45;;;14.50;99.90;;;;;;4410854;32;21095;-76
2023/07/26 05:08:25;;;;;;;0.28;0.28;;;14.50;99.90;;;;;;4415230;32;20694;-76
2023/07/26 05:10:51;;;;;;;0.55;0.50;;;14.50;99.90;;;;;;4416280;32;20133;-76
2023/07/26 05:13:19;;;;;;;1.20;1.10;;;14.60;99.90;;;;;;4413101;32;20070;-78
2023/07/26 05:15:44;;;;;;;0.43;0.43;;;14.50;99.90;;;;;;4416082;32;20556;-78
2023/07/26 05:18:10;;;;;;;0.40;0.40;;;14.60;99.90;;;;;;4415115;32;20121;-74
2023/07/26 05:20:37;;;;;;;0.68;0.68;;;14.60;99.90;;;;;;4413956;32;20070;-73
2023/07/26 05:23:03;;;;;;;0.20;0.20;;;14.60;99.90;;;;;;4413696;32;20062;-75
2023/07/26 05:25:28;;;;;;;0.45;0.45;;;14.70;99.90;;;;;;4417244;32;20082;-76
2023/07/26 05:27:55;;;;;;;8.48;0.62;;;14.60;99.90;;;;;;4419858;32;20537;-76
2023/07/26 05:30:20;;;;;;;0.30;0.30;;;14.60;99.90;;;;;;4420872;32;20094;-74
2023/07/26 05:32:46;;;;;;;0.90;0.85;;;14.70;99.90;;;;;;4415577;32;20066;-77
2023/07/26 05:35:12;;;;;;;0.20;0.20;;;14.70;99.90;;;;;;4417904;32;20114;-77
2023/07/26 05:37:38;;;;;;;0.45;0.45;;;14.80;99.90;;;;;;4419384;32;20141;-77
2023/07/26 05:40:05;;;;;;;0.55;0.52;;;14.90;99.90;;;;;;4419294;32;20522;-77
2023/07/26 05:42:31;;;;;;;0.45;0.45;;;15.00;99.90;;;;;;4416875;32;20069;-76
2023/07/26 05:44:57;;;;;;;0.80;0.50;;;14.90;99.90;;;;;;4413068;32;20077;-77
2023/07/26 05:47:22;;;;;;;0.30;0.30;;;14.90;99.90;;;;;;4407145;32;20087;-76
2023/07/26 05:49:48;;;;;;;0.28;0.28;;;14.90;99.90;;;;;;4402320;32;20066;-76
2023/07/26 05:52:13;;;;;;;0.25;0.25;;;15.00;99.90;;;;;;4408129;32;20093;-76
2023/07/26 05:54:39;;;;;;;0.30;0.30;;;15.10;99.90;;;;;;4414431;32;20150;-77
2023/07/26 05:57:05;;;;;;;0.30;0.30;;;15.20;99.90;;;;;;4415513;32;20089;-77
2023/07/26 05:59:30;;;;;;;0.30;0.30;;;15.20;99.90;;;;;;4414649;32;20057;-77
2023/07/26 06:01:58;;;;;;;0.20;0.20;;;15.20;99.90;;;;;;4408677;32;20078;-78
2023/07/26 06:04:23;;;;;;;0.20;0.20;;;15.20;99.90;;;;;;4399344;32;20109;-77
2023/07/26 06:06:49;;;;;;;0.30;0.30;;;15.40;99.90;;;;;;4399583;32;20122;-77
2023/07/26 06:09:15;;;;;;;0.32;0.32;;;15.40;99.90;;;;;;4392024;32;20085;-77
2023/07/26 06:11:42;;;;;;;0.30;0.30;;;15.40;99.90;;;;;;4390139;32;20078;-77
2023/07/26 06:14:08;;;;;;;0.20;0.20;;;15.40;99.90;;;;;;4393601;32;20090;-76
2023/07/26 06:16:33;;;;;;;0.30;0.30;;;15.40;99.90;;;;;;4400632;32;20078;-77
2023/07/26 06:18:59;;;;;;;0.20;0.20;;;15.40;99.90;;;;;;4406873;32;20070;-77
2023/07/26 06:21:24;;;;;;;0.30;0.30;;;15.60;99.90;;;;;;4407642;32;20078;-76
2023/07/26 06:23:50;;;;;;;0.25;0.25;;;15.70;99.90;;;;;;4404788;32;20061;-76
2023/07/26 06:26:15;;;;;;;0.70;0.40;;;15.70;99.90;;;;;;4399974;32;20193;-78
2023/07/26 06:28:41;;;;;;;23.15;1.60;;;15.70;99.90;;;;;;4409511;32;20061;-77
2023/07/26 06:31:07;;;;;;;0.50;0.50;;;15.80;99.90;;;;;;4413511;32;20494;-77
2023/07/26 06:33:32;;;;;;;0.40;0.40;;;15.90;99.90;;;;;;4405194;32;20079;-77
2023/07/26 06:35:58;;;;;;;0.30;0.30;;;15.90;99.90;;;;;;4408920;32;20127;-76
2023/07/26 06:38:23;;;;;;;5.60;0.98;;;16.10;99.90;;;;;;4398929;32;20082;-76
2023/07/26 06:40:49;;;;;;;0.47;0.28;;;16.10;99.90;;;;;;4390348;32;20070;-76
2023/07/26 06:43:15;;;;;;;0.30;0.30;;;16.10;99.90;;;;;;4403508;32;20100;-76
2023/07/26 06:45:46;;;;;;;0.37;0.30;;;16.30;99.90;;;;;;4405587;32;20494;-77
2023/07/26 06:48:11;;;;;;;;;;;16.30;99.90;;;;;;4394062;32;20355;-77
2023/07/26 06:50:39;;;;;;;0.30;0.30;;;16.40;99.90;;;;;;4389527;32;19953;-77
2023/07/26 06:53:05;;;;;;;0.22;0.22;;;16.30;99.90;;;;;;4397816;32;20546;-76
2023/07/26 06:55:32;;;;;;;0.20;0.20;;;16.40;99.90;;;;;;4399299;32;20141;-77
2023/07/26 06:57:58;;;;;;;0.30;0.30;;;16.50;99.90;;;;;;4397017;32;20535;-76
2023/07/26 07:00:23;;;;;;;0.30;0.30;;;16.60;99.90;;;;;;4407364;32;20069;-77
2023/07/26 07:02:53;;;;;;;0.30;0.30;;;16.60;99.90;;;;;;4408303;32;20105;-76
2023/07/26 07:05:19;;;;;;;1.23;0.53;;;16.60;99.90;;;;;;4407611;32;20063;-76
2023/07/26 07:07:45;;;;;;;0.45;0.45;;;16.60;99.90;;;;;;4404914;32;20066;-77
2023/07/26 07:10:10;;;;;;;0.35;0.32;;;16.50;99.90;;;;;;4405161;32;20050;-76
2023/07/26 07:12:36;;;;;;;0.30;0.30;;;16.50;99.90;;;;;;4405406;32;20130;-77
2023/07/26 07:15:01;;;;;;;0.30;0.30;;;16.60;99.90;;;;;;4406277;32;20128;-75
2023/07/26 07:17:28;;;;;;;0.55;0.55;;;16.60;99.90;;;;;;4404058;32;20087;-75
2023/07/26 07:19:54;;;;;;;0.20;0.20;;;16.50;99.90;;;;;;4403218;32;20102;-75
2023/07/26 07:22:21;;;;;;;0.20;0.20;;;16.60;99.90;;;;;;4406412;32;20118;-76
2023/07/26 07:24:46;;;;;;;0.30;0.30;;;16.70;99.90;;;;;;4405537;32;20086;-75
2023/07/26 07:27:12;;;;;;;0.30;0.30;;;16.70;99.90;;;;;;4409426;32;20113;-76
2023/07/26 07:29:38;;;;;;;0.60;0.60;;;16.70;99.90;;;;;;4404708;32;20125;-75
2023/07/26 07:32:03;;;;;;;0.45;0.45;;;16.70;99.90;;;;;;4405170;32;20085;-76
2023/07/26 07:34:29;;;;;;;0.22;0.22;;;16.80;99.90;;;;;;4403649;32;20078;-75
2023/07/26 07:36:55;;;;;;;1.65;0.30;;;16.90;99.90;;;;;;4401852;32;20124;-76
2023/07/26 07:39:20;;;;;;;0.30;0.30;;;16.90;99.90;;;;;;4404675;32;20545;-76
2023/07/26 07:41:46;;;;;;;0.22;0.22;;;17.00;99.90;;;;;;4406612;32;20066;-76
2023/07/26 07:44:11;;;;;;;0.65;0.50;;;17.10;99.90;;;;;;4405020;32;20066;-78
2023/07/26 07:46:37;;;;;;;0.30;0.30;;;17.20;99.90;;;;;;4404867;32;20069;-77
2023/07/26 07:49:02;;;;;;;0.60;0.60;;;17.40;99.90;;;;;;4395103;32;20074;-76
2023/07/26 07:51:28;;;;;;;0.28;0.28;;;17.40;99.90;;;;;;4387623;32;20116;-78
2023/07/26 07:53:53;;;;;;;0.30;0.30;;;17.40;99.90;;;;;;4404473;32;20090;-77
2023/07/26 07:56:19;;;;;;;3.70;1.27;;;17.50;99.90;;;;;;4395147;32;20066;-77
2023/07/26 07:58:44;;;;;;;0.28;0.28;;;17.40;99.90;;;;;;4401395;32;20070;-77
2023/07/26 08:01:10;;;;;;;0.30;0.30;;;17.40;99.90;;;;;;4407240;32;20522;-76
2023/07/26 08:03:35;;;;;;;0.30;0.30;;;17.40;99.90;;;;;;4419465;32;20068;-75
2023/07/26 08:06:01;;;;;;;0.30;0.30;;;17.40;99.90;;;;;;4417072;32;20098;-76
2023/07/26 08:08:26;;;;;;;0.20;0.20;;;17.30;99.90;;;;;;4411257;32;20081;-77
2023/07/26 08:10:52;;;;;;;0.30;0.30;;;17.40;99.90;;;;;;4412433;32;20078;-76
2023/07/26 08:13:17;;;;;;;0.30;0.30;;;17.40;99.90;;;;;;4420384;32;20082;-76
2023/07/26 08:15:43;;;;;;;0.30;0.30;;;17.50;99.90;;;;;;4417561;32;20065;-78
2023/07/26 08:18:08;;;;;;;0.20;0.20;;;17.70;99.90;;;;;;4411535;32;20070;-76
2023/07/26 08:20:35;;;;;;;0.20;0.20;;;17.90;99.90;;;;;;4423140;32;20089;-78
2023/07/26 08:23:01;;;;;;;1.42;1.10;;;18.00;99.90;;;;;;4417758;32;20087;-76
2023/07/26 08:25:27;;;;;;;0.30;0.30;;;17.90;99.90;;;;;;4427751;27;20042;-60
2023/07/26 08:27:52;;;;;;;1.75;0.35;;;17.90;99.90;;;;;;4435332;32;20090;-60
2023/07/26 08:30:18;;;;;;;0.40;0.40;;;17.70;99.90;;;;;;4436297;32;20093;-62
2023/07/26 08:32:43;;;;;;;0.22;0.22;;;17.70;99.90;;;;;;4423077;32;20069;-62
2023/07/26 08:35:08;;;;;;;0.30;0.30;;;17.80;99.90;;;;;;4422466;32;20069;-60
2023/07/26 08:37:34;;;;;;;0.30;0.30;;;17.70;99.90;;;;;;4424740;32;20129;-61
2023/07/26 08:40:00;;;;;;;0.30;0.30;;;17.70;99.90;;;;;;4424085;32;20074;-61
2023/07/26 08:42:26;;;;;;;0.20;0.20;;;17.70;99.90;;;;;;4424709;32;20065;-61
2023/07/26 08:44:53;;;;;;;0.20;0.20;;;17.70;99.90;;;;;;4431070;32;20132;-61
2023/07/26 08:47:22;;;;;;;0.40;0.40;;;17.60;99.90;;;;;;4435948;32;20097;-61
2023/07/26 08:49:48;;;;;;;0.20;0.20;;;17.70;99.90;;;;;;4438366;32;20057;-65
2023/07/26 08:52:16;;;;;;;1.35;0.50;;;17.60;99.90;;;;;;4437312;32;20125;-63
2023/07/26 08:54:43;;;;;;;0.40;0.40;;;17.70;99.90;;;;;;4437044;32;20053;-61
2023/07/26 08:57:09;;;;;;;0.30;0.30;;;17.90;99.90;;;;;;4433549;32;20144;-63
2023/07/26 08:59:34;;;;;;;0.40;0.40;;;18.10;99.90;;;;;;4430615;32;20077;-62
2023/07/26 09:02:03;;;;;;;0.30;0.30;;;18.30;99.90;;;;;;4421396;32;20069;-62
2023/07/26 09:04:30;;;;;;;0.68;0.50;;;18.20;99.90;;;;;;4433883;32;20065;-63
2023/07/26 09:07:01;;;;;;;0.30;0.30;;;18.50;99.90;;;;;;4433931;32;20074;-63
2023/07/26 09:09:27;;;;;;;0.37;0.37;;;18.70;99.90;;;;;;4433215;32;20513;-63
2023/07/26 09:11:52;;;;;;;0.30;0.30;;;18.90;99.90;;;;;;4426782;32;20074;-64
2023/07/26 09:14:18;;;;;;;0.20;0.20;;;19.00;99.90;;;;;;4433006;32;20074;-63
2023/07/26 09:16:43;;;;;;;0.20;0.20;;;19.10;99.90;;;;;;4433478;32;20069;-62
2023/07/26 09:19:09;;;;;;;0.32;0.32;;;19.40;99.90;;;;;;4437539;32;20045;-63
2023/07/26 09:21:36;;;;;;;0.60;0.60;;;19.40;99.90;;;;;;4433849;32;20181;-62
2023/07/26 09:24:04;;;;;;;0.80;0.50;;;19.10;99.90;;;;;;4434184;32;20069;-64
2023/07/26 09:26:35;;;;;;;0.22;0.22;;;18.90;99.90;;;;;;4445834;32;20139;-63
2023/07/26 09:29:02;;;;;;;0.70;0.70;;;18.90;99.90;;;;;;4443497;32;20126;-63
2023/07/26 09:31:32;;;;;;;0.50;0.50;;;19.20;99.90;;;;;;4435496;32;20086;-62
2023/07/26 09:34:01;;;;;;;0.52;0.50;;;19.20;99.90;;;;;;4417953;32;20082;-65
2023/07/26 09:36:40;;;;;;;0.30;0.30;;;18.90;99.90;;;;;;4416796;32;20427;-63
2023/07/26 09:39:05;;;;;;;0.20;0.20;;;18.90;99.90;;;;;;4429608;32;20058;-62
2023/07/26 09:41:31;;;;;;;0.30;0.30;;;19.10;99.90;;;;;;4429661;32;20083;-64
2023/07/26 09:43:59;;;;;;;0.20;0.20;;;19.20;99.90;;;;;;4432404;32;20050;-62
2023/07/26 09:46:24;;;;;;;0.50;0.50;;;19.50;99.90;;;;;;4444907;32;20081;-64
2023/07/26 09:48:58;;;;;;;0.45;0.45;;;19.70;99.90;;;;;;4441547;32;20058;-63
2023/07/26 09:51:28;;;;;;;0.40;0.40;;;19.90;99.90;;;;;;4445836;32;20061;-63
2023/07/26 09:53:56;;;;;;;0.25;0.25;;;19.80;99.90;;;;;;4437072;32;20069;-65
2023/07/26 09:56:23;;;;;;;0.50;0.50;;;19.90;99.90;;;;;;4429676;32;20105;-63
2023/07/26 09:58:50;;;;;;;0.20;0.20;;;19.80;99.90;;;;;;4431211;32;20057;-65
2023/07/26 10:01:19;;;;;;;0.70;0.70;;;19.70;99.90;;;;;;4421252;32;20066;-63
2023/07/26 10:03:52;;;;;;;0.20;0.20;;;19.80;99.90;;;;;;4429609;32;20071;-63
2023/07/26 10:06:19;;;;;;;0.20;0.20;;;20.20;99.90;;;;;;4441370;32;20128;-64
2023/07/26 10:08:46;;;;;;;0.30;0.30;;;20.20;99.90;;;;;;4436589;32;20045;-65
2023/07/26 10:11:14;;;;;;;0.20;0.20;;;20.50;99.90;;;;;;4435901;32;20065;-64
2023/07/26 10:13:42;;;;;;;0.22;0.22;;;20.80;99.90;;;;;;4416445;32;20113;-61
2023/07/26 10:16:08;;;;;;;0.20;0.20;;;20.50;99.90;;;;;;4421698;32;20058;-65
2023/07/26 10:18:34;;;;;;;0.20;0.20;;;20.40;99.90;;;;;;4441443;32;20081;-64
2023/07/26 10:21:01;;;;;;;0.20;0.20;;;20.50;99.90;;;;;;4439386;32;20077;-63
2023/07/26 10:23:28;;;;;;;1.65;0.30;;;20.80;99.90;;;;;;4416472;32;20061;-63
2023/07/26 10:25:55;;;;;;;0.20;0.20;;;20.70;99.90;;;;;;4442554;32;20085;-64
2023/07/26 10:28:22;;;;;;;0.20;0.20;;;21.10;99.90;;;;;;4440824;32;20057;-63
2023/07/26 10:30:49;;;;;;;0.28;0.28;;;21.30;99.90;;;;;;4429741;32;20069;-63
2023/07/26 10:33:15;;;;;;;0.20;0.20;;;21.50;99.90;;;;;;4430091;32;20082;-62
2023/07/26 10:35:43;;;;;;;0.30;0.30;;;21.50;99.90;;;;;;4436291;32;20077;-62
2023/07/26 10:38:08;;;;;;;0.30;0.30;;;21.70;99.90;;;;;;4442088;32;20026;-61
2023/07/26 10:40:37;;;;;;;0.30;0.30;;;22.20;99.90;;;;;;4426851;32;20082;-62
2023/07/26 10:43:24;;;;;;;1.25;0.28;;;21.80;99.50;;;;;;4428672;32;20074;-61
2023/07/26 10:45:54;;;;;;;0.20;0.20;;;21.50;99.90;;;;;;4422064;32;20042;-62
2023/07/26 10:48:38;;;;;;;0.25;0.25;;;22.00;99.90;;;;;;4429014;32;20138;-63
2023/07/26 10:51:25;;;;;;;0.20;0.20;;;22.30;98.50;;;;;;4427910;32;20132;-63
2023/07/26 10:53:53;;;;;;;0.22;0.22;;;21.50;98.80;;;;;;4421972;32;20086;-63
2023/07/26 10:56:22;;;;;;;0.20;0.20;;;21.20;99.90;;;;;;4444261;32;20078;-63
2023/07/26 10:58:58;;;;;;;0.20;0.20;;;21.40;99.90;;;;;;4425651;32;20067;-65
2023/07/26 11:01:33;;;;;;;0.20;0.20;;;21.50;99.90;;;;;;4428777;32;20655;-63
2023/07/26 11:03:59;;;;;;;0.20;0.20;;;21.70;99.80;;;;;;4427995;32;20081;-64
2023/07/26 11:07:01;;;;;;;0.20;0.20;;;22.10;98.50;;;;;;4423460;32;20098;-65
2023/07/26 11:09:29;;;;;;;0.20;0.20;;;22.50;98.80;;;;;;4425965;32;20094;-63
2023/07/26 11:11:58;;;;;;;0.20;0.20;;;22.30;98.20;;;;;;4429136;32;20072;-64
2023/07/26 11:14:25;;;;;;;0.20;0.20;;;21.80;98.50;;;;;;4430860;32;20055;-65
2023/07/26 11:16:51;;;;;;;0.30;0.30;;;21.60;99.60;;;;;;4417026;32;20074;-62
2023/07/26 11:19:17;;;;;;;1.95;0.85;;;21.60;99.50;;;;;;4430079;32;20075;-63
2023/07/26 11:21:43;;;;;;;0.20;0.20;;;21.60;99.70;;;;;;4428878;32;20062;-63
2023/07/26 11:24:09;;;;;;;0.10;0.10;;;22.00;99.40;;;;;;4428149;32;20074;-65
2023/07/26 11:26:44;;;;;;;0.20;0.20;;;22.10;98.70;;;;;;4427575;32;20101;-62
2023/07/26 11:29:10;;;;;;;0.20;0.20;;;22.30;98.60;;;;;;4428523;32;20116;-63
2023/07/26 11:31:36;;;;;;;0.20;0.20;;;22.40;98.70;;;;;;4443079;32;20068;-64
2023/07/26 11:34:19;;;;;;;0.20;0.20;;;22.70;97.20;;;;;;4438458;32;20102;-64
2023/07/26 11:36:45;;;;;;;0.22;0.22;;;22.90;97.30;;;;;;4415524;32;20140;-64
2023/07/26 11:39:22;;;;;;;0.20;0.20;;;23.40;96.50;;;;;;4432246;32;20088;-62
2023/07/26 11:41:49;;;;;;;0.15;0.15;;;23.80;96.40;;;;;;4430126;32;20074;-62
2023/07/26 11:44:15;;;;;;;0.20;0.20;;;23.80;96.30;;;;;;4434420;32;20057;-64
2023/07/26 11:46:44;;;;;;;0.13;0.13;;;24.00;95.90;;;;;;4438187;32;167855;-63
2023/07/26 11:49:18;;;;;;;0.25;0.20;;;24.00;97.40;;;;;;4436372;32;20057;-63
2023/07/26 11:51:44;;;;;;;0.75;0.55;;;24.00;96.10;;;;;;4427802;32;20089;-64
2023/07/26 11:54:10;;;;;;;0.37;0.32;;;24.10;95.70;;;;;;4427967;32;20018;-62
2023/07/26 11:56:37;;;;;;;0.15;0.15;;;24.40;96.90;;;;;;4427656;32;20062;-64
2023/07/26 11:59:03;;;;;;;0.15;0.15;;;24.50;97.00;;;;;;4427040;32;20077;-63
2023/07/26 12:01:29;;;;;;;11.10;0.62;;;24.20;96.50;;;;;;4442373;32;20077;-61
2023/07/26 12:03:55;;;;;;;0.10;0.10;;;24.20;96.70;;;;;;4424267;32;20113;-63
2023/07/26 12:06:21;;;;;;;0.10;0.10;;;23.60;97.00;;;;;;4430134;32;20050;-63
2023/07/26 12:08:47;;;;;;;0.20;0.20;;;22.70;99.80;;;;;;4438300;32;20062;-63
2023/07/26 12:11:17;;;;;;;1.45;0.50;;;21.90;99.90;;;;;;4427666;32;20089;-64
2023/07/26 12:13:43;;;;;;;1.75;0.30;;;21.50;99.90;;;;;;4426587;32;20083;-63
2023/07/26 12:16:09;;;;;;;0.82;0.40;;;20.80;99.90;;;;;;4427074;32;20411;-64
2023/07/26 12:18:35;;;;;;;0.20;0.20;;;20.20;99.90;;;;;;4428924;32;20062;-63
2023/07/26 12:21:09;;;;;;;0.10;0.10;;;19.90;99.90;;;;;;4438015;32;20104;-63
2023/07/26 12:23:55;;;;;;;0.20;0.20;;;19.90;99.90;;;;;;4415045;32;20082;-64
2023/07/26 12:26:23;;;;;;;1.52;0.30;;;20.80;99.90;;;;;;4425392;32;20081;-64
2023/07/26 12:28:51;;;;;;;0.17;0.17;;;22.00;99.90;;;;;;4420721;32;20066;-64
2023/07/26 12:31:20;;;;;;;0.20;0.20;;;22.70;99.90;;;;;;4416391;32;20078;-63
2023/07/26 12:33:55;;;;;;;0.20;0.20;;;23.30;98.40;;;;;;4434196;32;20082;-61
2023/07/26 12:36:21;;;;;;;0.13;0.13;;;23.00;97.60;;;;;;4414346;32;20082;-62
2023/07/26 12:38:46;;;;;;;0.20;0.20;;;23.10;97.20;;;;;;4413114;32;20094;-61
2023/07/26 12:41:12;;;;;;;0.13;0.13;;;23.40;96.70;;;;;;4437064;32;20078;-62
2023/07/26 12:43:37;;;;;;;0.08;0.08;;;24.00;97.90;;;;;;4441471;32;20061;-64
2023/07/26 12:46:03;;;;;;;0.20;0.20;;;24.60;96.50;;;;;;4428369;32;20090;-62